Time,TemperatureF,DewpointF,PressureIn,WindDirection,WindDirectionDegrees,WindSpeedMPH,WindSpeedGustMPH,Humidity,HourlyPrecipIn,Conditions,Clouds,dailyrainin,SoftwareType,DateUTC
2013-09-15 00:02:00,58.8,58.5,29.73,West,270,0.0,0.0,99,0.00,,,0.00,meteohub,2013-09-15 07:02:00,
2013-09-15 00:07:00,58.8,58.5,29.73,West,270,0.0,0.0,99,0.00,,,0.00,meteohub,2013-09-15 07:07:00,
2013-09-15 00:54:00,59.2,58.8,29.72,North,0,0.0,0.0,99,0.00,,,0.00,meteohub,2013-09-15 07:54:00,
2013-09-15 00:59:00,59.9,59.5,29.72,North,0,0.0,0.0,99,0.00,,,0.00,meteohub,2013-09-15 07:59:00,
2013-09-15 01:05:00,59.9,59.5,29.72,North,-999,-999.0,0.0,99,0.00,,,0.00,meteohub,2013-09-15 08:05:00,
2013-09-15 01:10:00,58.8,58.5,29.72,North,0,1.0,0.0,99,0.00,,,0.00,meteohub,2013-09-15 08:10:00,
2013-09-15 01:15:00,59.0,58.6,29.72,North,0,0.0,0.0,99,0.00,,,0.00,meteohub,2013-09-15 08:15:00,
2013-09-15 01:20:00,60.1,59.7,29.72,North,0,0.0,1.0,99,0.00,,,0.00,meteohub,2013-09-15 08:20:00,
2013-09-15 01:25:00,60.1,59.7,29.72,North,-999,-999.0,1.0,99,0.00,,,0.00,meteohub,2013-09-15 08:25:00,
2013-09-15 01:30:00,60.1,59.7,29.72,North,-999,-999.0,1.0,99,0.00,,,0.00,meteohub,2013-09-15 08:30:00,
2013-09-15 01:35:00,59.2,58.8,29.71,North,0,0.0,0.0,99,0.00,,,0.00,meteohub,2013-09-15 08:35:00,
2013-09-15 01:40:00,59.4,59.0,29.71,North,0,0.0,-999.0,99,0.00,,,0.00,meteohub,2013-09-15 08:40:00,
2013-09-15 01:44:00,59.4,59.0,29.71,North,0,0.0,0.0,99,0.00,,,0.00,meteohub,2013-09-15 08:44:00,
2013-09-15 01:49:00,58.3,57.9,29.71,SSW,203,0.0,0.0,99,0.00,,,0.00,meteohub,2013-09-15 08:49:00,
2013-09-15 01:54:00,58.5,58.1,29.71,ENE,68,0.0,1.0,99,0.00,,,0.00,meteohub,2013-09-15 08:54:00,
2013-09-15 01:59:00,58.5,58.1,29.71,ENE,68,0.0,1.0,99,0.00,,,0.00,meteohub,2013-09-15 08:59:00,
2013-09-15 02:04:00,63.0,62.6,29.71,ENE,68,2.0,2.0,99,0.00,,,0.00,meteohub,2013-09-15 09:04:00,
2013-09-15 02:09:00,58.3,57.9,29.71,ENE,68,0.0,1.0,99,0.00,,,0.00,meteohub,2013-09-15 09:09:00,
2013-09-15 02:14:00,57.7,57.4,29.71,ENE,68,1.0,2.0,99,0.00,,,0.00,meteohub,2013-09-15 09:14:00,
2013-09-15 02:19:00,59.2,58.8,29.71,WSW,248,0.0,2.0,99,0.00,,,0.00,meteohub,2013-09-15 09:19:00,
2013-09-15 02:24:00,59.2,58.8,29.71,WSW,248,0.0,2.0,99,0.00,,,0.00,meteohub,2013-09-15 09:24:00,
2013-09-15 02:29:00,59.4,59.0,29.71,North,0,0.0,2.0,99,0.00,,,0.00,meteohub,2013-09-15 09:29:00,
2013-09-15 02:34:00,59.4,59.0,29.71,North,0,0.0,2.0,99,0.00,,,0.00,meteohub,2013-09-15 09:34:00,
2013-09-15 02:39:00,58.3,57.9,29.71,ENE,68,0.0,0.0,99,0.00,,,0.00,meteohub,2013-09-15 09:39:00,
2013-09-15 02:44:00,58.5,58.1,29.71,ENE,68,0.0,1.0,99,0.00,,,0.00,meteohub,2013-09-15 09:44:00,
2013-09-15 02:49:00,58.5,58.1,29.71,ENE,68,0.0,1.0,99,0.00,,,0.00,meteohub,2013-09-15 09:49:00,
2013-09-15 02:54:00,58.3,57.9,29.71,ENE,68,0.0,1.0,99,0.00,,,0.00,meteohub,2013-09-15 09:54:00,
2013-09-15 02:59:00,58.5,58.1,29.71,ENE,68,0.0,1.0,99,0.00,,,0.00,meteohub,2013-09-15 09:59:00,
2013-09-15 03:04:00,58.5,58.1,29.71,ENE,68,0.0,1.0,99,0.00,,,0.00,meteohub,2013-09-15 10:04:00,
2013-09-15 03:09:00,58.3,57.9,29.71,ENE,68,0.0,1.0,99,0.00,,,0.00,meteohub,2013-09-15 10:09:00,
2013-09-15 03:14:00,57.9,57.6,29.71,ENE,68,0.0,1.0,99,0.00,,,0.00,meteohub,2013-09-15 10:14:00,
2013-09-15 03:19:00,58.3,57.9,29.71,ENE,68,0.0,1.0,99,0.00,,,0.00,meteohub,2013-09-15 10:19:00,
2013-09-15 03:24:00,57.9,57.6,29.71,ENE,68,0.0,1.0,99,0.00,,,0.00,meteohub,2013-09-15 10:24:00,
2013-09-15 03:29:00,58.3,57.9,29.71,ENE,68,0.0,1.0,99,0.00,,,0.00,meteohub,2013-09-15 10:29:00,
2013-09-15 03:34:00,58.3,57.9,29.71,ENE,68,0.0,1.0,99,0.00,,,0.00,meteohub,2013-09-15 10:34:00,
2013-09-15 03:39:00,58.3,57.9,29.71,North,0,0.0,1.0,99,0.00,,,0.00,meteohub,2013-09-15 10:39:00,
2013-09-15 03:44:00,58.5,58.1,29.71,North,-999,-999.0,0.0,99,0.00,,,0.00,meteohub,2013-09-15 10:44:00,
2013-09-15 03:49:00,58.3,57.9,29.71,ENE,68,0.0,0.0,99,0.00,,,0.00,meteohub,2013-09-15 10:49:00,
2013-09-15 03:54:00,59.2,58.8,29.71,West,270,0.0,2.0,99,0.00,,,0.00,meteohub,2013-09-15 10:54:00,
2013-09-15 03:59:00,57.9,57.6,29.71,SE,135,0.0,2.0,99,0.00,,,0.00,meteohub,2013-09-15 10:59:00,
2013-09-15 04:04:00,57.6,57.2,29.71,SE,135,0.0,2.0,99,0.00,,,0.00,meteohub,2013-09-15 11:04:00,
2013-09-15 04:09:00,59.5,59.2,29.71,SE,135,0.0,1.0,99,0.00,,,0.00,meteohub,2013-09-15 11:09:00,
2013-09-15 04:14:00,59.5,59.2,29.71,North,-999,-999.0,1.0,99,0.00,,,0.00,meteohub,2013-09-15 11:14:00,
2013-09-15 04:19:00,59.5,59.2,29.71,North,-999,-999.0,0.0,99,0.00,,,0.00,meteohub,2013-09-15 11:19:00,
2013-09-15 04:24:00,59.5,59.2,29.71,North,-999,-999.0,0.0,99,0.00,,,0.00,meteohub,2013-09-15 11:24:00,
2013-09-15 04:29:00,59.5,59.2,29.71,North,-999,-999.0,-999.0,99,0.00,,,0.00,meteohub,2013-09-15 11:29:00,
2013-09-15 04:34:00,59.4,59.0,29.71,North,-999,-999.0,-999.0,99,0.00,,,0.00,meteohub,2013-09-15 11:34:00,
2013-09-15 04:39:00,57.7,57.4,29.71,ENE,68,0.0,-999.0,99,0.00,,,0.00,meteohub,2013-09-15 11:39:00,
2013-09-15 04:44:00,59.4,59.0,29.70,ENE,68,0.0,0.0,99,0.00,,,0.00,meteohub,2013-09-15 11:44:00,
2013-09-15 04:49:00,59.2,58.8,29.71,ENE,68,0.0,1.0,99,0.00,,,0.00,meteohub,2013-09-15 11:49:00,
2013-09-15 04:54:00,59.2,58.8,29.71,North,-999,-999.0,1.0,99,0.00,,,0.00,meteohub,2013-09-15 11:54:00,
2013-09-15 04:59:00,57.7,57.4,29.71,North,-999,-999.0,1.0,99,0.00,,,0.00,meteohub,2013-09-15 11:59:00,
2013-09-15 05:04:00,57.9,57.6,29.71,North,0,0.0,-999.0,99,0.00,,,0.00,meteohub,2013-09-15 12:04:00,
2013-09-15 05:09:00,57.4,57.0,29.71,North,0,0.0,1.0,99,0.00,,,0.00,meteohub,2013-09-15 12:09:00,
2013-09-15 05:14:00,57.2,56.8,29.70,North,-999,-999.0,1.0,99,0.00,,,0.00,meteohub,2013-09-15 12:14:00,
2013-09-15 05:19:00,57.0,56.7,29.71,North,-999,-999.0,1.0,99,0.00,,,0.00,meteohub,2013-09-15 12:19:00,
2013-09-15 05:24:00,57.2,56.8,29.70,North,-999,-999.0,0.0,99,0.00,,,0.00,meteohub,2013-09-15 12:24:00,
2013-09-15 05:29:00,57.2,56.8,29.71,North,-999,-999.0,-999.0,99,0.00,,,0.00,meteohub,2013-09-15 12:29:00,
2013-09-15 05:34:00,57.2,56.8,29.71,North,-999,-999.0,-999.0,99,0.00,,,0.00,meteohub,2013-09-15 12:34:00,
2013-09-15 05:39:00,57.0,56.7,29.70,North,-999,-999.0,-999.0,99,0.00,,,0.00,meteohub,2013-09-15 12:39:00,
2013-09-15 05:44:00,56.8,56.5,29.70,North,-999,-999.0,-999.0,99,0.00,,,0.00,meteohub,2013-09-15 12:44:00,
2013-09-15 05:49:00,56.8,56.5,29.70,North,-999,-999.0,-999.0,99,0.00,,,0.00,meteohub,2013-09-15 12:49:00,
2013-09-15 05:54:00,56.8,56.5,29.71,North,-999,-999.0,-999.0,99,0.00,,,0.00,meteohub,2013-09-15 12:54:00,
2013-09-15 05:59:00,55.8,55.4,29.70,ENE,68,1.0,-999.0,99,0.00,,,0.00,meteohub,2013-09-15 12:59:00,
2013-09-15 06:04:00,56.1,55.8,29.70,ENE,68,0.0,-999.0,99,0.00,,,0.00,meteohub,2013-09-15 13:04:00,
2013-09-15 06:09:00,56.1,55.8,29.70,ENE,68,0.0,1.0,99,0.00,,,0.00,meteohub,2013-09-15 13:09:00,
2013-09-15 06:14:00,57.0,56.7,29.71,North,0,0.0,1.0,99,0.00,,,0.00,meteohub,2013-09-15 13:14:00,
2013-09-15 06:19:00,57.0,56.7,29.71,North,0,0.0,0.0,99,0.00,,,0.00,meteohub,2013-09-15 13:19:00,
2013-09-15 06:24:00,57.0,56.7,29.70,North,0,0.0,0.0,99,0.00,,,0.00,meteohub,2013-09-15 13:24:00,
2013-09-15 06:29:00,57.0,56.7,29.70,North,0,0.0,0.0,99,0.00,,,0.00,meteohub,2013-09-15 13:29:00,
2013-09-15 06:34:00,57.0,56.7,29.70,North,0,0.0,0.0,99,0.00,,,0.00,meteohub,2013-09-15 13:34:00,
2013-09-15 06:39:00,57.0,56.7,29.70,North,0,0.0,0.0,99,0.00,,,0.00,meteohub,2013-09-15 13:39:00,
2013-09-15 06:44:00,57.0,56.7,29.70,North,0,0.0,0.0,99,0.00,,,0.00,meteohub,2013-09-15 13:44:00,
2013-09-15 06:49:00,56.8,56.5,29.70,North,0,0.0,0.0,99,0.00,,,0.00,meteohub,2013-09-15 13:49:00,
2013-09-15 06:54:00,56.8,56.5,29.70,North,0,0.0,0.0,99,0.00,,,0.00,meteohub,2013-09-15 13:54:00,
2013-09-15 06:59:00,56.8,56.5,29.70,North,0,0.0,0.0,99,0.00,,,0.00,meteohub,2013-09-15 13:59:00,
2013-09-15 07:04:00,57.0,56.7,29.71,North,0,0.0,0.0,99,0.00,,,0.00,meteohub,2013-09-15 14:04:00,
2013-09-15 07:09:00,56.8,56.5,29.71,North,0,0.0,0.0,99,0.00,,,0.00,meteohub,2013-09-15 14:09:00,
2013-09-15 07:14:00,56.8,56.5,29.70,North,0,0.0,0.0,99,0.01,,,0.01,meteohub,2013-09-15 14:14:00,
2013-09-15 07:19:00,57.0,56.7,29.70,North,0,0.0,0.0,99,0.01,,,0.01,meteohub,2013-09-15 14:19:00,
2013-09-15 07:24:00,55.9,55.6,29.71,SE,135,0.0,0.0,99,0.01,,,0.01,meteohub,2013-09-15 14:24:00,
2013-09-15 07:29:00,56.1,55.8,29.71,SE,135,0.0,1.0,99,0.01,,,0.01,meteohub,2013-09-15 14:29:00,
2013-09-15 07:34:00,55.9,55.6,29.70,SE,135,0.0,1.0,99,0.01,,,0.01,meteohub,2013-09-15 14:34:00,
2013-09-15 07:39:00,56.3,55.9,29.70,SE,135,0.0,1.0,99,0.01,,,0.01,meteohub,2013-09-15 14:39:00,
2013-09-15 07:44:00,56.7,56.3,29.70,SE,135,0.0,1.0,99,0.01,,,0.01,meteohub,2013-09-15 14:44:00,
2013-09-15 07:49:00,56.7,56.3,29.70,SE,135,0.0,1.0,99,0.01,,,0.01,meteohub,2013-09-15 14:49:00,
2013-09-15 07:54:00,56.5,56.1,29.70,SE,135,0.0,0.0,99,0.01,,,0.01,meteohub,2013-09-15 14:54:00,
2013-09-15 07:59:00,57.0,56.7,29.70,SE,135,0.0,1.0,99,0.01,,,0.01,meteohub,2013-09-15 14:59:00,
2013-09-15 08:04:00,56.8,56.5,29.70,SE,135,2.0,2.0,99,0.01,,,0.01,meteohub,2013-09-15 15:04:00,
2013-09-15 08:09:00,57.2,56.8,29.70,SE,135,1.0,2.0,99,0.00,,,0.01,meteohub,2013-09-15 15:09:00,
2013-09-15 08:14:00,57.4,57.0,29.70,ENE,68,0.0,2.0,99,0.00,,,0.01,meteohub,2013-09-15 15:14:00,
2013-09-15 08:19:00,57.6,57.2,29.70,ENE,68,0.0,2.0,99,0.00,,,0.01,meteohub,2013-09-15 15:19:00,
2013-09-15 08:24:00,57.6,57.2,29.70,SE,135,0.0,2.0,99,0.00,,,0.01,meteohub,2013-09-15 15:24:00,
2013-09-15 08:25:00,57.6,57.2,29.70,SE,135,0.0,2.0,99,0.00,,,0.01,meteohub,2013-09-15 15:25:00,
2013-09-15 08:29:00,57.7,57.4,29.71,SE,135,0.0,2.0,99,0.00,,,0.01,meteohub,2013-09-15 15:29:00,
2013-09-15 08:35:00,57.9,57.6,29.71,SE,135,0.0,1.0,99,0.00,,,0.01,meteohub,2013-09-15 15:35:00,
2013-09-15 08:40:00,58.3,57.9,29.71,SE,135,0.0,0.0,99,0.00,,,0.01,meteohub,2013-09-15 15:40:00,
2013-09-15 08:45:00,58.8,58.5,29.71,WSW,248,0.0,0.0,99,0.00,,,0.01,meteohub,2013-09-15 15:45:00,
2013-09-15 08:50:00,58.5,58.1,29.71,ENE,68,0.0,0.0,99,0.00,,,0.01,meteohub,2013-09-15 15:50:00,
2013-09-15 08:55:00,58.3,57.9,29.71,SE,135,0.0,1.0,99,0.00,,,0.01,meteohub,2013-09-15 15:55:00,
2013-09-15 09:00:00,58.6,58.3,29.71,SE,135,0.0,1.0,99,0.00,,,0.01,meteohub,2013-09-15 16:00:00,
2013-09-15 09:05:00,58.8,58.5,29.71,South,180,0.0,1.0,99,0.00,,,0.01,meteohub,2013-09-15 16:05:00,
2013-09-15 09:10:00,59.0,58.6,29.72,South,180,0.0,0.0,99,0.00,,,0.01,meteohub,2013-09-15 16:10:00,
2013-09-15 09:15:00,59.4,59.0,29.72,South,180,0.0,1.0,99,0.00,,,0.01,meteohub,2013-09-15 16:15:00,
2013-09-15 09:20:00,59.5,59.2,29.73,South,180,0.0,1.0,99,0.00,,,0.01,meteohub,2013-09-15 16:20:00,
2013-09-15 09:25:00,59.5,59.2,29.73,South,180,0.0,0.0,99,0.00,,,0.01,meteohub,2013-09-15 16:25:00,
2013-09-15 09:30:00,59.5,59.2,29.73,WSW,248,0.0,3.0,99,0.00,,,0.01,meteohub,2013-09-15 16:30:00,
2013-09-15 09:35:00,59.7,59.4,29.73,North,0,0.0,3.0,99,0.00,,,0.01,meteohub,2013-09-15 16:35:00,
2013-09-15 09:40:00,59.7,59.4,29.73,North,0,0.0,3.0,99,0.00,,,0.01,meteohub,2013-09-15 16:40:00,
2013-09-15 09:45:00,60.3,59.9,29.73,North,0,1.0,1.0,99,0.00,,,0.01,meteohub,2013-09-15 16:45:00,
2013-09-15 09:50:00,60.1,59.7,29.73,North,-999,-999.0,1.0,99,0.00,,,0.01,meteohub,2013-09-15 16:50:00,
2013-09-15 09:55:00,59.4,59.0,29.73,North,0,0.0,1.0,99,0.00,,,0.01,meteohub,2013-09-15 16:55:00,
2013-09-15 10:00:00,59.0,58.6,29.73,North,0,0.0,1.0,99,0.00,,,0.01,meteohub,2013-09-15 17:00:00,
2013-09-15 10:05:00,58.8,58.5,29.72,ENE,68,0.0,1.0,99,0.00,,,0.01,meteohub,2013-09-15 17:05:00,
2013-09-15 10:10:00,58.8,58.5,29.72,SE,135,0.0,0.0,99,0.00,,,0.01,meteohub,2013-09-15 17:10:00,
2013-09-15 10:15:00,59.0,58.6,29.73,SE,135,0.0,0.0,99,0.00,,,0.01,meteohub,2013-09-15 17:15:00,
2013-09-15 10:20:00,59.0,58.6,29.73,South,180,0.0,0.0,99,0.00,,,0.01,meteohub,2013-09-15 17:20:00,
2013-09-15 10:25:00,59.0,58.6,29.73,South,180,0.0,0.0,99,0.00,,,0.01,meteohub,2013-09-15 17:25:00,
2013-09-15 10:30:00,58.8,58.5,29.73,WSW,248,1.0,0.0,99,0.00,,,0.01,meteohub,2013-09-15 17:30:00,
2013-09-15 10:35:00,58.8,58.5,29.73,WSW,248,1.0,1.0,99,0.02,,,0.04,meteohub,2013-09-15 17:35:00,
2013-09-15 10:40:00,58.3,57.9,29.73,South,180,1.0,2.0,99,0.02,,,0.04,meteohub,2013-09-15 17:40:00,
2013-09-15 10:45:00,58.1,57.7,29.74,SE,135,1.0,2.0,99,0.02,,,0.04,meteohub,2013-09-15 17:45:00,
2013-09-15 10:50:00,59.0,58.6,29.73,North,0,0.0,2.0,99,0.04,,,0.05,meteohub,2013-09-15 17:50:00,
2013-09-15 10:55:00,59.2,58.8,29.73,North,0,0.0,1.0,99,0.04,,,0.05,meteohub,2013-09-15 17:55:00,
2013-09-15 11:00:00,62.6,62.2,29.73,SW,225,1.0,1.0,99,0.04,,,0.05,meteohub,2013-09-15 18:00:00,
2013-09-15 11:05:00,60.8,60.4,29.73,West,270,0.0,1.0,99,0.04,,,0.05,meteohub,2013-09-15 18:05:00,
2013-09-15 11:10:00,63.0,62.6,29.73,West,270,1.0,1.0,99,0.04,,,0.05,meteohub,2013-09-15 18:10:00,
2013-09-15 11:16:00,61.7,61.3,29.73,WSW,248,0.0,1.0,99,0.04,,,0.05,meteohub,2013-09-15 18:16:00,
2013-09-15 11:21:00,64.4,64.0,29.73,SW,225,1.0,1.0,99,0.04,,,0.05,meteohub,2013-09-15 18:21:00,
2013-09-15 11:26:00,62.4,62.1,29.73,West,270,0.0,1.0,99,0.04,,,0.05,meteohub,2013-09-15 18:26:00,
2013-09-15 11:31:00,63.3,63.0,29.73,NNE,23,0.0,1.0,99,0.02,,,0.05,meteohub,2013-09-15 18:31:00,
2013-09-15 11:36:00,62.6,62.2,29.74,North,0,2.0,2.0,99,0.01,,,0.05,meteohub,2013-09-15 18:36:00,
2013-09-15 11:41:00,63.3,63.0,29.74,West,270,0.0,2.0,99,0.01,,,0.05,meteohub,2013-09-15 18:41:00,
2013-09-15 11:46:00,63.0,62.6,29.73,ENE,68,0.0,2.0,99,0.00,,,0.05,meteohub,2013-09-15 18:46:00,
2013-09-15 11:51:00,65.3,64.9,29.73,South,180,1.0,2.0,99,0.00,,,0.05,meteohub,2013-09-15 18:51:00,
2013-09-15 11:56:00,65.3,64.9,29.74,West,270,1.0,2.0,99,0.00,,,0.05,meteohub,2013-09-15 18:56:00,
2013-09-15 12:01:00,63.9,63.5,29.73,South,180,1.0,2.0,99,0.00,,,0.05,meteohub,2013-09-15 19:01:00,
2013-09-15 12:06:00,64.0,63.7,29.74,West,270,0.0,2.0,99,0.00,,,0.05,meteohub,2013-09-15 19:06:00,
2013-09-15 12:11:00,65.8,65.5,29.74,South,180,0.0,2.0,99,0.00,,,0.05,meteohub,2013-09-15 19:11:00,
2013-09-15 12:16:00,65.8,65.5,29.73,North,0,1.0,2.0,99,0.00,,,0.05,meteohub,2013-09-15 19:16:00,
2013-09-15 12:18:00,63.9,63.5,29.73,North,0,1.0,2.0,99,0.00,,,0.05,meteohub,2013-09-15 19:18:00,
2013-09-15 12:23:00,64.6,64.2,29.73,SW,225,2.0,2.0,99,0.00,,,0.05,meteohub,2013-09-15 19:23:00,
2013-09-15 12:28:00,55.8,55.4,29.74,SSW,203,1.0,2.0,99,0.00,,,0.05,meteohub,2013-09-15 19:28:00,
2013-09-15 12:33:00,64.6,64.2,29.74,WSW,248,1.0,2.0,99,0.00,,,0.05,meteohub,2013-09-15 19:33:00,
2013-09-15 12:38:00,65.5,65.1,29.74,West,270,1.0,2.0,99,0.00,,,0.05,meteohub,2013-09-15 19:38:00,
2013-09-15 12:43:00,65.3,64.9,29.74,West,270,1.0,2.0,99,0.00,,,0.05,meteohub,2013-09-15 19:43:00,
2013-09-15 12:48:00,65.7,65.3,29.74,West,270,0.0,2.0,99,0.00,,,0.05,meteohub,2013-09-15 19:48:00,
2013-09-15 12:53:00,64.8,64.4,29.74,SE,135,0.0,2.0,99,0.00,,,0.05,meteohub,2013-09-15 19:53:00,
2013-09-15 12:58:00,67.5,67.1,29.74,SE,135,1.0,2.0,99,0.00,,,0.05,meteohub,2013-09-15 19:58:00,
2013-09-15 13:03:00,65.8,65.5,29.74,SE,135,1.0,1.0,99,0.00,,,0.05,meteohub,2013-09-15 20:03:00,
2013-09-15 13:08:00,65.7,65.3,29.74,North,-999,-999.0,1.0,99,0.00,,,0.05,meteohub,2013-09-15 20:08:00,
2013-09-15 13:13:00,64.4,64.0,29.74,South,180,1.0,1.0,99,0.00,,,0.05,meteohub,2013-09-15 20:13:00,
2013-09-15 13:18:00,63.9,63.5,29.74,ENE,68,0.0,1.0,99,0.00,,,0.05,meteohub,2013-09-15 20:18:00,
2013-09-15 13:23:00,64.0,63.7,29.74,West,270,0.0,2.0,99,0.00,,,0.05,meteohub,2013-09-15 20:23:00,
2013-09-15 13:28:00,63.3,63.0,29.74,WSW,248,0.0,2.0,99,0.00,,,0.05,meteohub,2013-09-15 20:28:00,
2013-09-15 13:33:00,63.9,63.5,29.74,WSW,248,1.0,2.0,99,0.00,,,0.05,meteohub,2013-09-15 20:33:00,
2013-09-15 13:38:00,63.9,63.5,29.75,North,-999,-999.0,1.0,99,0.00,,,0.05,meteohub,2013-09-15 20:38:00,
2013-09-15 13:43:00,65.7,65.3,29.75,North,-999,-999.0,1.0,99,0.00,,,0.05,meteohub,2013-09-15 20:43:00,
2013-09-15 13:48:00,62.8,62.4,29.75,South,180,0.0,1.0,99,0.00,,,0.05,meteohub,2013-09-15 20:48:00,
2013-09-15 13:53:00,63.0,62.6,29.75,North,0,0.0,1.0,99,0.00,,,0.05,meteohub,2013-09-15 20:53:00,
2013-09-15 13:58:00,63.5,63.1,29.75,South,180,0.0,1.0,99,0.00,,,0.05,meteohub,2013-09-15 20:58:00,
2013-09-15 14:03:00,63.5,63.1,29.75,North,-999,-999.0,1.0,99,0.00,,,0.05,meteohub,2013-09-15 21:03:00,
2013-09-15 14:08:00,63.3,63.0,29.75,North,-999,-999.0,1.0,99,0.00,,,0.05,meteohub,2013-09-15 21:08:00,
2013-09-15 14:13:00,63.3,63.0,29.75,North,-999,-999.0,0.0,99,0.00,,,0.05,meteohub,2013-09-15 21:13:00,
2013-09-15 14:18:00,65.5,65.1,29.75,SE,135,0.0,-999.0,99,0.00,,,0.05,meteohub,2013-09-15 21:18:00,
2013-09-15 14:23:00,63.3,63.0,29.75,West,270,0.0,1.0,99,0.00,,,0.05,meteohub,2013-09-15 21:23:00,
2013-09-15 14:28:00,62.6,62.2,29.75,ENE,68,0.0,1.0,99,0.00,,,0.05,meteohub,2013-09-15 21:28:00,
2013-09-15 14:33:00,63.0,62.6,29.75,South,180,1.0,2.0,99,0.00,,,0.05,meteohub,2013-09-15 21:33:00,
2013-09-15 14:38:00,63.1,62.8,29.75,South,180,0.0,2.0,99,0.00,,,0.05,meteohub,2013-09-15 21:38:00,
2013-09-15 14:51:00,64.4,64.0,29.75,West,270,1.0,2.0,99,0.00,,,0.05,meteohub,2013-09-15 21:51:00,
2013-09-15 14:56:00,63.7,63.3,29.75,South,180,1.0,2.0,99,0.00,,,0.05,meteohub,2013-09-15 21:56:00,
2013-09-15 15:01:00,64.9,64.6,29.75,North,0,0.0,2.0,99,0.00,,,0.05,meteohub,2013-09-15 22:01:00,
2013-09-15 15:06:00,64.6,64.2,29.75,West,270,0.0,2.0,99,0.00,,,0.05,meteohub,2013-09-15 22:06:00,
2013-09-15 15:11:00,64.6,64.2,29.75,West,270,0.0,2.0,99,0.00,,,0.05,meteohub,2013-09-15 22:11:00,
2013-09-15 15:16:00,63.9,63.5,29.75,WSW,248,1.0,1.0,99,0.00,,,0.05,meteohub,2013-09-15 22:16:00,
2013-09-15 15:21:00,63.7,63.3,29.75,South,180,2.0,2.0,99,0.00,,,0.05,meteohub,2013-09-15 22:21:00,
2013-09-15 15:26:00,63.9,63.5,29.76,North,0,1.0,2.0,99,0.00,,,0.05,meteohub,2013-09-15 22:26:00,
2013-09-15 15:31:00,63.3,63.0,29.76,South,180,1.0,2.0,99,0.00,,,0.05,meteohub,2013-09-15 22:31:00,
2013-09-15 15:36:00,63.9,63.5,29.76,West,270,0.0,2.0,99,0.00,,,0.05,meteohub,2013-09-15 22:36:00,
2013-09-15 15:41:00,64.2,63.9,29.75,West,270,0.0,2.0,99,0.00,,,0.05,meteohub,2013-09-15 22:41:00,
2013-09-15 15:46:00,65.7,65.3,29.75,West,270,2.0,2.0,99,0.00,,,0.05,meteohub,2013-09-15 22:46:00,
2013-09-15 15:51:00,64.6,64.2,29.75,SE,135,1.0,2.0,99,0.00,,,0.05,meteohub,2013-09-15 22:51:00,
2013-09-15 15:56:00,65.5,65.1,29.75,West,270,2.0,2.0,99,0.00,,,0.05,meteohub,2013-09-15 22:56:00,
2013-09-15 16:01:00,65.5,65.1,29.75,West,270,1.0,3.0,99,0.00,,,0.05,meteohub,2013-09-15 23:01:00,
2013-09-15 16:06:00,64.9,64.6,29.75,West,270,2.0,3.0,99,0.00,,,0.05,meteohub,2013-09-15 23:06:00,
2013-09-15 16:11:00,64.6,64.2,29.76,North,0,0.0,3.0,99,0.00,,,0.05,meteohub,2013-09-15 23:11:00,
2013-09-15 16:16:00,63.7,63.3,29.76,WSW,248,0.0,3.0,99,0.00,,,0.05,meteohub,2013-09-15 23:16:00,
2013-09-15 16:21:00,63.1,62.8,29.76,SE,135,1.0,3.0,99,0.00,,,0.05,meteohub,2013-09-15 23:21:00,
2013-09-15 16:26:00,63.7,63.3,29.76,West,270,2.0,2.0,99,0.00,,,0.05,meteohub,2013-09-15 23:26:00,
2013-09-15 16:31:00,63.7,63.3,29.76,West,270,0.0,2.0,99,0.00,,,0.05,meteohub,2013-09-15 23:31:00,
2013-09-15 16:36:00,63.7,63.3,29.76,West,270,1.0,2.0,99,0.01,,,0.06,meteohub,2013-09-15 23:36:00,
2013-09-15 16:41:00,62.6,62.2,29.77,South,180,1.0,2.0,99,0.04,,,0.08,meteohub,2013-09-15 23:41:00,
2013-09-15 16:46:00,62.8,62.4,29.77,West,270,0.0,1.0,99,0.04,,,0.08,meteohub,2013-09-15 23:46:00,
2013-09-15 16:51:00,62.1,61.7,29.77,WSW,248,0.0,1.0,99,0.05,,,0.09,meteohub,2013-09-15 23:51:00,
2013-09-15 16:56:00,62.8,62.4,29.76,WSW,248,0.0,1.0,99,0.07,,,0.12,meteohub,2013-09-15 23:56:00,
2013-09-15 17:01:00,63.0,62.6,29.76,WSW,248,0.0,1.0,99,0.09,,,0.14,meteohub,2013-09-16 00:01:00,
2013-09-15 17:06:00,63.3,63.0,29.76,North,-999,-999.0,1.0,99,0.11,,,0.15,meteohub,2013-09-16 00:06:00,
2013-09-15 17:11:00,62.6,62.2,29.76,SE,135,0.0,1.0,99,0.12,,,0.17,meteohub,2013-09-16 00:11:00,
2013-09-15 17:16:00,63.3,63.0,29.76,South,180,1.0,1.0,99,0.12,,,0.17,meteohub,2013-09-16 00:16:00,
2013-09-15 17:21:00,63.0,62.6,29.77,West,270,0.0,2.0,99,0.12,,,0.17,meteohub,2013-09-16 00:21:00,
2013-09-15 17:26:00,65.5,65.1,29.77,South,180,1.0,2.0,99,0.12,,,0.17,meteohub,2013-09-16 00:26:00,
2013-09-15 17:31:00,62.4,62.1,29.77,North,0,1.0,2.0,99,0.12,,,0.17,meteohub,2013-09-16 00:31:00,
2013-09-15 17:37:00,62.4,62.1,29.77,WSW,248,1.0,2.0,99,0.08,,,0.17,meteohub,2013-09-16 00:37:00,
2013-09-15 17:41:00,62.6,62.2,29.75,West,270,0.0,2.0,99,0.08,,,0.17,meteohub,2013-09-16 00:41:00,
2013-09-15 17:46:00,61.9,61.5,29.76,West,270,0.0,2.0,99,0.07,,,0.17,meteohub,2013-09-16 00:46:00,
2013-09-15 17:52:00,62.4,62.1,29.76,West,270,0.0,2.0,99,0.07,,,0.17,meteohub,2013-09-16 00:52:00,
2013-09-15 17:57:00,62.2,61.9,29.77,West,270,0.0,2.0,99,0.05,,,0.17,meteohub,2013-09-16 00:57:00,
2013-09-15 18:02:00,62.1,61.7,29.78,West,270,0.0,2.0,99,0.02,,,0.17,meteohub,2013-09-16 01:02:00,
2013-09-15 18:07:00,61.2,60.8,29.77,South,180,0.0,2.0,99,0.01,,,0.17,meteohub,2013-09-16 01:07:00,
2013-09-15 18:12:00,61.9,61.5,29.77,West,270,0.0,2.0,99,0.00,,,0.17,meteohub,2013-09-16 01:12:00,
2013-09-15 18:17:00,70.9,70.5,29.77,South,180,1.0,2.0,99,0.00,,,0.17,meteohub,2013-09-16 01:17:00,
2013-09-15 18:22:00,61.0,60.6,29.78,WSW,248,2.0,2.0,99,0.00,,,0.17,meteohub,2013-09-16 01:22:00,
2013-09-15 18:27:00,61.0,60.6,29.78,WSW,248,0.0,2.0,99,0.00,,,0.17,meteohub,2013-09-16 01:27:00,
2013-09-15 18:32:00,61.0,60.6,29.77,North,0,0.0,2.0,99,0.00,,,0.17,meteohub,2013-09-16 01:32:00,
2013-09-15 18:37:00,61.3,61.0,29.77,WSW,248,0.0,2.0,99,0.00,,,0.17,meteohub,2013-09-16 01:37:00,
2013-09-15 18:42:00,61.0,60.6,29.78,West,270,1.0,1.0,99,0.01,,,0.18,meteohub,2013-09-16 01:42:00,
2013-09-15 18:47:00,62.2,61.9,29.77,West,270,0.0,3.0,99,0.01,,,0.18,meteohub,2013-09-16 01:47:00,
2013-09-15 18:52:00,61.0,60.6,29.77,South,180,1.0,3.0,99,0.01,,,0.18,meteohub,2013-09-16 01:52:00,
2013-09-15 18:57:00,59.7,59.4,29.77,ENE,68,1.0,4.0,99,0.01,,,0.18,meteohub,2013-09-16 01:57:00,
2013-09-15 19:02:00,60.8,60.4,29.77,North,0,0.0,4.0,99,0.04,,,0.20,meteohub,2013-09-16 02:02:00,
2013-09-15 19:07:00,59.9,59.5,29.77,WSW,248,0.0,2.0,99,0.05,,,0.21,meteohub,2013-09-16 02:07:00,
2013-09-15 19:12:00,59.9,59.5,29.77,WSW,248,0.0,2.0,99,0.05,,,0.21,meteohub,2013-09-16 02:12:00,
2013-09-15 19:17:00,59.9,59.5,29.78,WSW,248,0.0,2.0,99,0.05,,,0.21,meteohub,2013-09-16 02:17:00,
2013-09-15 19:22:00,60.6,60.3,29.78,WSW,248,2.0,2.0,99,0.05,,,0.21,meteohub,2013-09-16 02:22:00,
2013-09-15 19:27:00,60.6,60.3,29.78,SSW,203,1.0,2.0,99,0.05,,,0.21,meteohub,2013-09-16 02:27:00,
2013-09-15 19:32:00,59.7,59.4,29.78,SE,135,0.0,2.0,99,0.05,,,0.21,meteohub,2013-09-16 02:32:00,
2013-09-15 19:37:00,59.7,59.4,29.78,SE,135,1.0,2.0,99,0.05,,,0.21,meteohub,2013-09-16 02:37:00,
2013-09-15 19:42:00,59.9,59.5,29.78,North,-999,-999.0,2.0,99,0.04,,,0.21,meteohub,2013-09-16 02:42:00,
2013-09-15 19:47:00,60.3,59.9,29.78,North,0,0.0,1.0,99,0.04,,,0.21,meteohub,2013-09-16 02:47:00,
2013-09-15 19:52:00,60.1,59.7,29.78,North,0,0.0,1.0,99,0.04,,,0.21,meteohub,2013-09-16 02:52:00,
2013-09-15 19:57:00,60.3,59.9,29.78,North,0,0.0,1.0,99,0.02,,,0.21,meteohub,2013-09-16 02:57:00,
2013-09-15 20:02:00,60.8,60.4,29.78,North,0,0.0,1.0,99,0.01,,,0.21,meteohub,2013-09-16 03:02:00,
2013-09-15 20:07:00,60.4,60.1,29.77,West,270,0.0,1.0,99,0.00,,,0.21,meteohub,2013-09-16 03:07:00,
2013-09-15 20:12:00,60.4,60.1,29.78,West,270,0.0,1.0,99,0.00,,,0.21,meteohub,2013-09-16 03:12:00,
2013-09-15 20:17:00,61.7,61.3,29.78,West,270,2.0,2.0,99,0.00,,,0.21,meteohub,2013-09-16 03:17:00,
2013-09-15 20:22:00,60.4,60.1,29.78,West,270,0.0,2.0,99,0.00,,,0.21,meteohub,2013-09-16 03:22:00,
2013-09-15 20:27:00,60.4,60.1,29.78,West,270,0.0,2.0,99,0.00,,,0.21,meteohub,2013-09-16 03:27:00,
2013-09-15 20:32:00,59.9,59.5,29.78,West,270,0.0,2.0,99,0.00,,,0.21,meteohub,2013-09-16 03:32:00,
2013-09-15 20:37:00,60.1,59.7,29.79,North,0,0.0,2.0,99,0.00,,,0.21,meteohub,2013-09-16 03:37:00,
2013-09-15 20:42:00,60.6,60.3,29.80,West,270,0.0,1.0,99,0.00,,,0.21,meteohub,2013-09-16 03:42:00,
2013-09-15 20:47:00,57.2,56.8,29.80,SSE,158,2.0,2.0,99,0.00,,,0.21,meteohub,2013-09-16 03:47:00,
2013-09-15 20:52:00,60.4,60.1,29.81,North,0,0.0,2.0,99,0.00,,,0.21,meteohub,2013-09-16 03:52:00,
2013-09-15 20:57:00,61.0,60.6,29.81,West,270,1.0,2.0,99,0.00,,,0.21,meteohub,2013-09-16 03:57:00,
2013-09-15 21:01:00,60.8,60.4,29.80,West,270,0.0,2.0,99,0.00,,,0.21,meteohub,2013-09-16 04:01:00,
2013-09-15 21:03:00,60.3,59.9,29.80,South,180,0.0,2.0,99,0.00,,,0.21,meteohub,2013-09-16 04:03:00,
2013-09-15 21:08:00,63.0,62.6,29.80,SW,225,0.0,2.0,99,0.00,,,0.21,meteohub,2013-09-16 04:08:00,
2013-09-15 21:13:00,60.1,59.7,29.80,ENE,68,0.0,2.0,99,0.00,,,0.21,meteohub,2013-09-16 04:13:00,
2013-09-15 21:18:00,61.2,60.8,29.79,ENE,68,0.0,1.0,99,0.00,,,0.21,meteohub,2013-09-16 04:18:00,
2013-09-15 21:23:00,60.4,60.1,29.79,WSW,248,0.0,1.0,99,0.00,,,0.21,meteohub,2013-09-16 04:23:00,
2013-09-15 21:28:00,61.2,60.8,29.80,WSW,248,0.0,1.0,99,0.00,,,0.21,meteohub,2013-09-16 04:28:00,
2013-09-15 21:33:00,63.5,63.1,29.80,SE,135,2.0,2.0,99,0.00,,,0.21,meteohub,2013-09-16 04:33:00,
2013-09-15 21:38:00,60.4,60.1,29.80,WSW,248,0.0,1.0,99,0.00,,,0.21,meteohub,2013-09-16 04:38:00,
2013-09-15 21:43:00,60.6,60.3,29.80,WSW,248,0.0,2.0,99,0.00,,,0.21,meteohub,2013-09-16 04:43:00,
2013-09-15 21:48:00,60.3,59.9,29.79,ENE,68,0.0,2.0,99,0.00,,,0.21,meteohub,2013-09-16 04:48:00,
2013-09-15 21:53:00,61.2,60.8,29.79,West,270,1.0,1.0,99,0.01,,,0.22,meteohub,2013-09-16 04:53:00,
2013-09-15 21:58:00,60.1,59.7,29.79,SE,135,2.0,2.0,99,0.01,,,0.22,meteohub,2013-09-16 04:58:00,
2013-09-15 22:03:00,61.2,60.8,29.79,SE,135,2.0,2.0,99,0.01,,,0.22,meteohub,2013-09-16 05:03:00,
2013-09-15 22:08:00,61.2,60.8,29.80,West,270,1.0,2.0,99,0.01,,,0.22,meteohub,2013-09-16 05:08:00,
2013-09-15 22:13:00,60.4,60.1,29.79,WSW,248,1.0,2.0,99,0.01,,,0.22,meteohub,2013-09-16 05:13:00,
2013-09-15 22:18:00,61.0,60.6,29.79,West,270,0.0,2.0,99,0.01,,,0.22,meteohub,2013-09-16 05:18:00,
2013-09-15 22:23:00,60.8,60.4,29.79,West,270,0.0,2.0,99,0.01,,,0.22,meteohub,2013-09-16 05:23:00,
2013-09-15 22:28:00,61.2,60.8,29.79,North,0,0.0,2.0,99,0.01,,,0.22,meteohub,2013-09-16 05:28:00,
2013-09-15 22:33:00,60.3,59.9,29.79,South,180,1.0,1.0,99,0.01,,,0.22,meteohub,2013-09-16 05:33:00,
2013-09-15 22:38:00,60.8,60.4,29.79,West,270,1.0,3.0,99,0.01,,,0.22,meteohub,2013-09-16 05:38:00,
2013-09-15 22:43:00,60.8,60.4,29.79,West,270,0.0,3.0,99,0.01,,,0.22,meteohub,2013-09-16 05:43:00,
2013-09-15 22:48:00,60.8,60.4,29.79,West,270,0.0,3.0,99,0.01,,,0.22,meteohub,2013-09-16 05:48:00,
2013-09-15 22:53:00,61.3,61.0,29.78,West,270,1.0,3.0,99,0.00,,,0.22,meteohub,2013-09-16 05:53:00,
2013-09-15 22:58:00,61.3,61.0,29.79,West,270,1.0,2.0,99,0.00,,,0.22,meteohub,2013-09-16 05:58:00,
2013-09-15 23:03:00,61.3,61.0,29.79,West,270,1.0,1.0,99,0.00,,,0.22,meteohub,2013-09-16 06:03:00,
2013-09-15 23:08:00,61.2,60.8,29.80,WSW,248,1.0,2.0,99,0.00,,,0.22,meteohub,2013-09-16 06:08:00,
2013-09-15 23:13:00,61.0,60.6,29.80,West,270,1.0,2.0,99,0.00,,,0.22,meteohub,2013-09-16 06:13:00,
2013-09-15 23:18:00,60.8,60.4,29.80,West,270,0.0,2.0,99,0.00,,,0.22,meteohub,2013-09-16 06:18:00,
2013-09-15 23:23:00,60.3,59.9,29.80,WSW,248,2.0,2.0,99,0.00,,,0.22,meteohub,2013-09-16 06:23:00,
2013-09-15 23:28:00,60.8,60.4,29.80,West,270,0.0,2.0,99,0.00,,,0.22,meteohub,2013-09-16 06:28:00,
2013-09-15 23:33:00,63.1,62.8,29.80,West,270,1.0,2.0,99,0.00,,,0.22,meteohub,2013-09-16 06:33:00,
2013-09-15 23:38:00,63.0,62.6,29.80,SW,225,2.0,2.0,99,0.00,,,0.22,meteohub,2013-09-16 06:38:00,
2013-09-15 23:43:00,61.0,60.6,29.80,WSW,248,0.0,2.0,99,0.00,,,0.22,meteohub,2013-09-16 06:43:00,
2013-09-15 23:48:00,60.8,60.4,29.80,West,270,1.0,2.0,99,0.00,,,0.22,meteohub,2013-09-16 06:48:00,
2013-09-15 23:53:00,60.4,60.1,29.80,North,0,1.0,2.0,99,0.00,,,0.22,meteohub,2013-09-16 06:53:00,
2013-09-15 23:58:00,59.7,59.4,29.80,North,0,0.0,2.0,99,0.00,,,0.22,meteohub,2013-09-16 06:58:00,